sensor_id;sensor_type;location;lat;lon;timestamp;P1;durP1;ratioP1;P2;durP2;ratioP2
13795;SDS011;40911;51.552;9.874;2023-07-24T00:04:13;1.50;;;1.38;;
13795;SDS011;40911;51.552;9.874;2023-07-24T00:06:35;2.55;;;1.52;;
13795;SDS011;40911;51.552;9.874;2023-07-24T00:08:58;2.28;;;1.50;;
13795;SDS011;40911;51.552;9.874;2023-07-24T00:11:20;3.95;;;1.70;;
13795;SDS011;40911;51.552;9.874;2023-07-24T00:13:41;2.15;;;1.52;;
13795;SDS011;40911;51.552;9.874;2023-07-24T00:16:06;1.50;;;1.40;;
13795;SDS011;40911;51.552;9.874;2023-07-24T00:18:28;1.60;;;1.42;;
13795;SDS011;40911;51.552;9.874;2023-07-24T00:23:11;1.50;;;1.33;;
13795;SDS011;40911;51.552;9.874;2023-07-24T00:27:56;1.27;;;1.10;;
13795;SDS011;40911;51.552;9.874;2023-07-24T00:32:39;1.63;;;1.50;;
13795;SDS011;40911;51.552;9.874;2023-07-24T00:37:22;1.77;;;1.42;;
13795;SDS011;40911;51.552;9.874;2023-07-24T00:39:44;1.63;;;1.40;;
13795;SDS011;40911;51.552;9.874;2023-07-24T00:44:28;3.10;;;1.60;;
13795;SDS011;40911;51.552;9.874;2023-07-24T00:49:11;2.60;;;1.40;;
13795;SDS011;40911;51.552;9.874;2023-07-24T00:51:33;2.05;;;1.33;;
13795;SDS011;40911;51.552;9.874;2023-07-24T00:53:56;1.60;;;1.50;;
13795;SDS011;40911;51.552;9.874;2023-07-24T00:56:18;1.65;;;1.55;;
13795;SDS011;40911;51.552;9.874;2023-07-24T00:58:41;2.17;;;1.83;;
13795;SDS011;40911;51.552;9.874;2023-07-24T01:01:03;2.47;;;1.50;;
13795;SDS011;40911;51.552;9.874;2023-07-24T01:03:28;4.07;;;1.60;;
13795;SDS011;40911;51.552;9.874;2023-07-24T01:05:54;2.17;;;1.88;;
13795;SDS011;40911;51.552;9.874;2023-07-24T01:08:16;5.38;;;1.90;;
13795;SDS011;40911;51.552;9.874;2023-07-24T01:10:38;2.72;;;1.75;;
13795;SDS011;40911;51.552;9.874;2023-07-24T01:13:01;2.38;;;1.60;;
13795;SDS011;40911;51.552;9.874;2023-07-24T01:15:30;1.60;;;1.50;;
13795;SDS011;40911;51.552;9.874;2023-07-24T01:17:56;2.80;;;1.58;;
13795;SDS011;40911;51.552;9.874;2023-07-24T01:20:20;2.72;;;1.75;;
13795;SDS011;40911;51.552;9.874;2023-07-24T01:22:46;2.72;;;1.60;;
13795;SDS011;40911;51.552;9.874;2023-07-24T01:25:17;3.20;;;1.50;;
13795;SDS011;40911;51.552;9.874;2023-07-24T01:27:45;2.97;;;1.70;;
13795;SDS011;40911;51.552;9.874;2023-07-24T01:30:08;3.95;;;1.70;;
13795;SDS011;40911;51.552;9.874;2023-07-24T01:32:30;1.85;;;1.60;;
13795;SDS011;40911;51.552;9.874;2023-07-24T01:34:52;2.72;;;1.80;;
13795;SDS011;40911;51.552;9.874;2023-07-24T01:37:14;2.55;;;1.60;;
13795;SDS011;40911;51.552;9.874;2023-07-24T01:39:37;3.53;;;1.60;;
13795;SDS011;40911;51.552;9.874;2023-07-24T01:42:01;2.95;;;1.77;;
13795;SDS011;40911;51.552;9.874;2023-07-24T01:44:24;2.50;;;1.60;;
13795;SDS011;40911;51.552;9.874;2023-07-24T01:46:46;3.10;;;1.83;;
13795;SDS011;40911;51.552;9.874;2023-07-24T01:51:30;3.42;;;1.80;;
13795;SDS011;40911;51.552;9.874;2023-07-24T01:53:52;2.75;;;1.85;;
13795;SDS011;40911;51.552;9.874;2023-07-24T01:58:35;3.08;;;1.70;;
13795;SDS011;40911;51.552;9.874;2023-07-24T02:00:58;2.85;;;1.63;;
13795;SDS011;40911;51.552;9.874;2023-07-24T02:03:20;2.97;;;1.83;;
13795;SDS011;40911;51.552;9.874;2023-07-24T02:08:03;6.63;;;2.20;;
13795;SDS011;40911;51.552;9.874;2023-07-24T02:10:25;1.88;;;1.70;;
13795;SDS011;40911;51.552;9.874;2023-07-24T02:15:09;5.10;;;2.20;;
13795;SDS011;40911;51.552;9.874;2023-07-24T02:17:32;4.63;;;2.17;;
13795;SDS011;40911;51.552;9.874;2023-07-24T02:19:54;1.75;;;1.65;;
13795;SDS011;40911;51.552;9.874;2023-07-24T02:24:37;2.78;;;2.25;;
13795;SDS011;40911;51.552;9.874;2023-07-24T02:26:59;1.85;;;1.67;;
13795;SDS011;40911;51.552;9.874;2023-07-24T02:29:21;2.85;;;2.05;;
13795;SDS011;40911;51.552;9.874;2023-07-24T02:31:43;2.85;;;1.90;;
13795;SDS011;40911;51.552;9.874;2023-07-24T02:36:28;2.88;;;1.80;;
13795;SDS011;40911;51.552;9.874;2023-07-24T02:38:49;2.13;;;1.92;;
13795;SDS011;40911;51.552;9.874;2023-07-24T02:41:11;2.60;;;1.98;;
13795;SDS011;40911;51.552;9.874;2023-07-24T02:43:33;3.45;;;1.70;;
13795;SDS011;40911;51.552;9.874;2023-07-24T02:48:16;2.33;;;2.03;;
13795;SDS011;40911;51.552;9.874;2023-07-24T02:50:39;6.00;;;2.25;;
13795;SDS011;40911;51.552;9.874;2023-07-24T02:53:01;5.85;;;1.80;;
13795;SDS011;40911;51.552;9.874;2023-07-24T02:55:23;3.40;;;2.15;;
13795;SDS011;40911;51.552;9.874;2023-07-24T02:57:44;2.90;;;2.00;;
13795;SDS011;40911;51.552;9.874;2023-07-24T03:00:06;3.15;;;2.05;;
13795;SDS011;40911;51.552;9.874;2023-07-24T03:02:29;2.38;;;2.03;;
13795;SDS011;40911;51.552;9.874;2023-07-24T03:07:14;2.70;;;1.90;;
13795;SDS011;40911;51.552;9.874;2023-07-24T03:09:35;4.22;;;2.03;;
13795;SDS011;40911;51.552;9.874;2023-07-24T03:14:19;6.28;;;1.77;;
13795;SDS011;40911;51.552;9.874;2023-07-24T03:16:40;2.50;;;1.90;;
13795;SDS011;40911;51.552;9.874;2023-07-24T03:21:23;2.47;;;2.08;;
13795;SDS011;40911;51.552;9.874;2023-07-24T03:23:47;2.40;;;2.20;;
13795;SDS011;40911;51.552;9.874;2023-07-24T03:26:08;4.22;;;2.00;;
13795;SDS011;40911;51.552;9.874;2023-07-24T03:28:30;2.60;;;2.08;;
13795;SDS011;40911;51.552;9.874;2023-07-24T03:30:52;2.08;;;1.88;;
13795;SDS011;40911;51.552;9.874;2023-07-24T03:33:14;4.70;;;2.17;;
13795;SDS011;40911;51.552;9.874;2023-07-24T03:35:37;4.00;;;2.40;;
13795;SDS011;40911;51.552;9.874;2023-07-24T03:37:59;2.70;;;1.80;;
13795;SDS011;40911;51.552;9.874;2023-07-24T03:42:44;4.47;;;2.08;;
13795;SDS011;40911;51.552;9.874;2023-07-24T03:45:06;3.65;;;1.98;;
13795;SDS011;40911;51.552;9.874;2023-07-24T03:47:28;5.47;;;2.22;;
13795;SDS011;40911;51.552;9.874;2023-07-24T03:49:50;3.47;;;2.20;;
13795;SDS011;40911;51.552;9.874;2023-07-24T03:52:12;3.25;;;1.83;;
13795;SDS011;40911;51.552;9.874;2023-07-24T03:54:34;7.40;;;2.17;;
13795;SDS011;40911;51.552;9.874;2023-07-24T03:59:19;4.15;;;2.22;;
13795;SDS011;40911;51.552;9.874;2023-07-24T04:04:02;3.17;;;1.95;;
13795;SDS011;40911;51.552;9.874;2023-07-24T04:06:24;4.38;;;2.10;;
13795;SDS011;40911;51.552;9.874;2023-07-24T04:08:46;6.35;;;2.10;;
13795;SDS011;40911;51.552;9.874;2023-07-24T04:13:30;3.00;;;2.03;;
13795;SDS011;40911;51.552;9.874;2023-07-24T04:15:53;4.70;;;2.28;;
13795;SDS011;40911;51.552;9.874;2023-07-24T04:18:15;3.90;;;2.13;;
13795;SDS011;40911;51.552;9.874;2023-07-24T04:22:58;2.97;;;1.85;;
13795;SDS011;40911;51.552;9.874;2023-07-24T04:27:41;2.40;;;2.03;;
13795;SDS011;40911;51.552;9.874;2023-07-24T04:30:05;3.67;;;1.92;;
13795;SDS011;40911;51.552;9.874;2023-07-24T04:32:28;6.07;;;2.25;;
13795;SDS011;40911;51.552;9.874;2023-07-24T04:34:49;6.00;;;2.30;;
13795;SDS011;40911;51.552;9.874;2023-07-24T04:39:33;2.58;;;2.08;;
13795;SDS011;40911;51.552;9.874;2023-07-24T04:41:54;2.70;;;2.35;;
13795;SDS011;40911;51.552;9.874;2023-07-24T04:46:39;7.20;;;2.40;;
13795;SDS011;40911;51.552;9.874;2023-07-24T04:49:01;6.20;;;2.45;;
13795;SDS011;40911;51.552;9.874;2023-07-24T04:53:44;2.88;;;2.03;;
13795;SDS011;40911;51.552;9.874;2023-07-24T04:56:09;2.25;;;2.00;;
13795;SDS011;40911;51.552;9.874;2023-07-24T04:58:32;3.70;;;2.20;;
13795;SDS011;40911;51.552;9.874;2023-07-24T05:00:54;3.25;;;2.30;;
13795;SDS011;40911;51.552;9.874;2023-07-24T05:05:39;3.70;;;1.95;;
13795;SDS011;40911;51.552;9.874;2023-07-24T05:10:22;3.92;;;2.13;;
13795;SDS011;40911;51.552;9.874;2023-07-24T05:12:44;2.55;;;2.00;;
13795;SDS011;40911;51.552;9.874;2023-07-24T05:15:06;5.30;;;2.17;;
13795;SDS011;40911;51.552;9.874;2023-07-24T05:17:29;3.20;;;2.50;;
13795;SDS011;40911;51.552;9.874;2023-07-24T05:19:52;5.22;;;2.10;;
13795;SDS011;40911;51.552;9.874;2023-07-24T05:22:13;2.70;;;2.08;;
13795;SDS011;40911;51.552;9.874;2023-07-24T05:26:58;3.53;;;2.03;;
13795;SDS011;40911;51.552;9.874;2023-07-24T05:29:19;3.00;;;1.90;;
13795;SDS011;40911;51.552;9.874;2023-07-24T05:31:42;2.80;;;2.00;;
13795;SDS011;40911;51.552;9.874;2023-07-24T05:34:04;2.83;;;2.15;;
13795;SDS011;40911;51.552;9.874;2023-07-24T05:36:27;2.95;;;2.03;;
13795;SDS011;40911;51.552;9.874;2023-07-24T05:38:49;4.57;;;2.30;;
13795;SDS011;40911;51.552;9.874;2023-07-24T05:41:13;6.75;;;2.25;;
13795;SDS011;40911;51.552;9.874;2023-07-24T05:45:57;6.22;;;2.20;;
13795;SDS011;40911;51.552;9.874;2023-07-24T05:48:19;5.38;;;1.80;;
13795;SDS011;40911;51.552;9.874;2023-07-24T05:50:41;3.30;;;2.00;;
13795;SDS011;40911;51.552;9.874;2023-07-24T05:53:04;2.70;;;2.10;;
13795;SDS011;40911;51.552;9.874;2023-07-24T05:55:26;4.68;;;2.20;;
13795;SDS011;40911;51.552;9.874;2023-07-24T05:57:47;5.57;;;2.03;;
13795;SDS011;40911;51.552;9.874;2023-07-24T06:00:09;2.88;;;1.90;;
13795;SDS011;40911;51.552;9.874;2023-07-24T06:02:31;6.75;;;2.38;;
13795;SDS011;40911;51.552;9.874;2023-07-24T06:04:53;3.70;;;2.08;;
13795;SDS011;40911;51.552;9.874;2023-07-24T06:09:39;3.65;;;2.20;;
13795;SDS011;40911;51.552;9.874;2023-07-24T06:12:00;2.40;;;2.20;;
13795;SDS011;40911;51.552;9.874;2023-07-24T06:14:22;2.40;;;2.20;;
13795;SDS011;40911;51.552;9.874;2023-07-24T06:16:44;3.70;;;2.30;;
13795;SDS011;40911;51.552;9.874;2023-07-24T06:19:06;5.68;;;2.08;;
13795;SDS011;40911;51.552;9.874;2023-07-24T06:21:27;3.17;;;2.00;;
13795;SDS011;40911;51.552;9.874;2023-07-24T06:23:49;2.78;;;2.30;;
13795;SDS011;40911;51.552;9.874;2023-07-24T06:26:12;2.85;;;2.13;;
13795;SDS011;40911;51.552;9.874;2023-07-24T06:28:34;4.82;;;2.20;;
13795;SDS011;40911;51.552;9.874;2023-07-24T06:30:56;3.47;;;1.95;;
13795;SDS011;40911;51.552;9.874;2023-07-24T06:33:17;4.05;;;2.40;;
13795;SDS011;40911;51.552;9.874;2023-07-24T06:35:39;4.05;;;2.35;;
13795;SDS011;40911;51.552;9.874;2023-07-24T06:38:01;6.55;;;2.10;;
13795;SDS011;40911;51.552;9.874;2023-07-24T06:40:22;4.15;;;2.20;;
13795;SDS011;40911;51.552;9.874;2023-07-24T06:42:46;3.40;;;2.22;;
13795;SDS011;40911;51.552;9.874;2023-07-24T06:45:07;3.72;;;2.40;;
13795;SDS011;40911;51.552;9.874;2023-07-24T06:47:30;3.70;;;2.28;;
13795;SDS011;40911;51.552;9.874;2023-07-24T06:49:51;3.60;;;2.00;;
13795;SDS011;40911;51.552;9.874;2023-07-24T06:52:13;3.03;;;2.10;;
13795;SDS011;40911;51.552;9.874;2023-07-24T06:54:35;4.30;;;2.40;;
13795;SDS011;40911;51.552;9.874;2023-07-24T06:56:56;2.75;;;2.15;;
13795;SDS011;40911;51.552;9.874;2023-07-24T06:59:20;4.57;;;2.10;;
13795;SDS011;40911;51.552;9.874;2023-07-24T07:01:41;3.08;;;2.40;;
13795;SDS011;40911;51.552;9.874;2023-07-24T07:04:03;2.80;;;2.30;;
13795;SDS011;40911;51.552;9.874;2023-07-24T07:06:25;3.47;;;2.38;;
13795;SDS011;40911;51.552;9.874;2023-07-24T07:08:47;3.60;;;2.50;;
13795;SDS011;40911;51.552;9.874;2023-07-24T07:11:08;3.45;;;2.20;;
13795;SDS011;40911;51.552;9.874;2023-07-24T07:13:30;3.45;;;2.30;;
13795;SDS011;40911;51.552;9.874;2023-07-24T07:15:53;5.65;;;2.78;;
13795;SDS011;40911;51.552;9.874;2023-07-24T07:18:15;3.63;;;2.60;;
13795;SDS011;40911;51.552;9.874;2023-07-24T07:20:38;4.20;;;2.80;;
13795;SDS011;40911;51.552;9.874;2023-07-24T07:23:00;3.50;;;2.50;;
13795;SDS011;40911;51.552;9.874;2023-07-24T07:25:21;5.65;;;2.50;;
13795;SDS011;40911;51.552;9.874;2023-07-24T07:27:43;3.35;;;2.10;;
13795;SDS011;40911;51.552;9.874;2023-07-24T07:30:05;3.88;;;2.60;;
13795;SDS011;40911;51.552;9.874;2023-07-24T07:32:29;4.57;;;2.85;;
13795;SDS011;40911;51.552;9.874;2023-07-24T07:34:51;4.18;;;2.63;;
13795;SDS011;40911;51.552;9.874;2023-07-24T07:37:13;3.92;;;2.67;;
13795;SDS011;40911;51.552;9.874;2023-07-24T07:39:35;3.72;;;2.83;;
13795;SDS011;40911;51.552;9.874;2023-07-24T07:41:57;6.78;;;2.70;;
13795;SDS011;40911;51.552;9.874;2023-07-24T07:44:19;5.53;;;2.95;;
13795;SDS011;40911;51.552;9.874;2023-07-24T07:46:40;3.63;;;2.42;;
13795;SDS011;40911;51.552;9.874;2023-07-24T07:49:03;4.75;;;2.83;;
13795;SDS011;40911;51.552;9.874;2023-07-24T07:51:25;5.20;;;3.17;;
13795;SDS011;40911;51.552;9.874;2023-07-24T07:53:47;4.00;;;2.80;;
13795;SDS011;40911;51.552;9.874;2023-07-24T07:56:09;3.92;;;2.85;;
13795;SDS011;40911;51.552;9.874;2023-07-24T07:58:31;5.45;;;2.78;;
13795;SDS011;40911;51.552;9.874;2023-07-24T08:00:53;3.47;;;2.58;;
13795;SDS011;40911;51.552;9.874;2023-07-24T08:03:14;5.05;;;2.63;;
13795;SDS011;40911;51.552;9.874;2023-07-24T08:05:38;3.85;;;2.97;;
13795;SDS011;40911;51.552;9.874;2023-07-24T08:07:59;4.43;;;2.65;;
13795;SDS011;40911;51.552;9.874;2023-07-24T08:10:21;4.40;;;2.72;;
13795;SDS011;40911;51.552;9.874;2023-07-24T08:12:43;5.80;;;3.47;;
13795;SDS011;40911;51.552;9.874;2023-07-24T08:15:05;4.60;;;2.90;;
13795;SDS011;40911;51.552;9.874;2023-07-24T08:17:29;7.85;;;4.30;;
13795;SDS011;40911;51.552;9.874;2023-07-24T08:19:51;4.07;;;2.80;;
13795;SDS011;40911;51.552;9.874;2023-07-24T08:22:15;5.70;;;2.60;;
13795;SDS011;40911;51.552;9.874;2023-07-24T08:24:39;4.88;;;2.88;;
13795;SDS011;40911;51.552;9.874;2023-07-24T08:27:01;4.80;;;3.28;;
13795;SDS011;40911;51.552;9.874;2023-07-24T08:29:23;7.45;;;2.83;;
13795;SDS011;40911;51.552;9.874;2023-07-24T08:31:44;4.53;;;2.67;;
13795;SDS011;40911;51.552;9.874;2023-07-24T08:34:06;3.42;;;2.75;;
13795;SDS011;40911;51.552;9.874;2023-07-24T08:36:28;4.13;;;2.92;;
13795;SDS011;40911;51.552;9.874;2023-07-24T08:38:51;5.53;;;3.10;;
13795;SDS011;40911;51.552;9.874;2023-07-24T08:41:14;4.70;;;2.70;;
13795;SDS011;40911;51.552;9.874;2023-07-24T08:43:37;5.25;;;3.28;;
13795;SDS011;40911;51.552;9.874;2023-07-24T08:45:59;5.28;;;3.08;;
13795;SDS011;40911;51.552;9.874;2023-07-24T08:48:22;4.97;;;3.00;;
13795;SDS011;40911;51.552;9.874;2023-07-24T08:50:44;3.70;;;2.78;;
13795;SDS011;40911;51.552;9.874;2023-07-24T08:53:08;3.95;;;3.00;;
13795;SDS011;40911;51.552;9.874;2023-07-24T08:55:31;4.68;;;2.90;;
13795;SDS011;40911;51.552;9.874;2023-07-24T08:57:53;4.68;;;3.03;;
13795;SDS011;40911;51.552;9.874;2023-07-24T09:00:15;4.13;;;3.03;;
13795;SDS011;40911;51.552;9.874;2023-07-24T09:02:37;4.55;;;2.60;;
13795;SDS011;40911;51.552;9.874;2023-07-24T09:04:59;5.55;;;2.90;;
13795;SDS011;40911;51.552;9.874;2023-07-24T09:07:20;2.88;;;2.55;;
13795;SDS011;40911;51.552;9.874;2023-07-24T09:09:42;3.92;;;2.90;;
13795;SDS011;40911;51.552;9.874;2023-07-24T09:12:06;6.82;;;2.83;;
13795;SDS011;40911;51.552;9.874;2023-07-24T09:14:28;4.65;;;2.58;;
13795;SDS011;40911;51.552;9.874;2023-07-24T09:17:01;3.88;;;2.85;;
13795;SDS011;40911;51.552;9.874;2023-07-24T09:19:23;5.28;;;2.60;;
13795;SDS011;40911;51.552;9.874;2023-07-24T09:21:45;5.30;;;2.63;;
13795;SDS011;40911;51.552;9.874;2023-07-24T09:24:11;10.15;;;2.95;;
13795;SDS011;40911;51.552;9.874;2023-07-24T09:26:33;4.93;;;2.53;;
13795;SDS011;40911;51.552;9.874;2023-07-24T09:28:56;5.03;;;2.70;;
13795;SDS011;40911;51.552;9.874;2023-07-24T09:31:18;4.78;;;2.95;;
13795;SDS011;40911;51.552;9.874;2023-07-24T09:33:40;2.88;;;2.45;;
13795;SDS011;40911;51.552;9.874;2023-07-24T09:36:04;3.70;;;2.45;;
13795;SDS011;40911;51.552;9.874;2023-07-24T09:38:27;3.88;;;2.70;;
13795;SDS011;40911;51.552;9.874;2023-07-24T09:40:49;3.88;;;2.53;;
13795;SDS011;40911;51.552;9.874;2023-07-24T09:43:19;5.03;;;2.78;;
13795;SDS011;40911;51.552;9.874;2023-07-24T09:45:43;3.53;;;2.65;;
13795;SDS011;40911;51.552;9.874;2023-07-24T09:48:05;2.78;;;2.33;;
13795;SDS011;40911;51.552;9.874;2023-07-24T09:50:31;3.17;;;2.25;;
13795;SDS011;40911;51.552;9.874;2023-07-24T09:52:53;2.90;;;2.42;;
13795;SDS011;40911;51.552;9.874;2023-07-24T09:55:19;4.97;;;2.90;;
13795;SDS011;40911;51.552;9.874;2023-07-24T10:00:13;3.58;;;2.70;;
13795;SDS011;40911;51.552;9.874;2023-07-24T10:02:36;5.63;;;2.55;;
13795;SDS011;40911;51.552;9.874;2023-07-24T10:04:58;4.00;;;2.40;;
13795;SDS011;40911;51.552;9.874;2023-07-24T10:07:20;4.45;;;2.80;;
13795;SDS011;40911;51.552;9.874;2023-07-24T10:09:43;3.47;;;2.58;;
13795;SDS011;40911;51.552;9.874;2023-07-24T10:12:06;4.25;;;2.78;;
13795;SDS011;40911;51.552;9.874;2023-07-24T10:14:29;5.53;;;2.97;;
13795;SDS011;40911;51.552;9.874;2023-07-24T10:16:51;4.07;;;3.03;;
13795;SDS011;40911;51.552;9.874;2023-07-24T10:19:17;5.18;;;3.33;;
13795;SDS011;40911;51.552;9.874;2023-07-24T10:21:43;4.93;;;3.22;;
13795;SDS011;40911;51.552;9.874;2023-07-24T10:24:06;4.38;;;3.08;;
13795;SDS011;40911;51.552;9.874;2023-07-24T10:26:28;3.70;;;2.80;;
13795;SDS011;40911;51.552;9.874;2023-07-24T10:28:51;3.63;;;2.50;;
13795;SDS011;40911;51.552;9.874;2023-07-24T10:31:18;4.35;;;2.90;;
13795;SDS011;40911;51.552;9.874;2023-07-24T10:33:43;5.60;;;3.20;;
13795;SDS011;40911;51.552;9.874;2023-07-24T10:36:08;6.82;;;3.17;;
13795;SDS011;40911;51.552;9.874;2023-07-24T10:38:32;5.05;;;3.30;;
13795;SDS011;40911;51.552;9.874;2023-07-24T10:41:00;4.85;;;3.40;;
13795;SDS011;40911;51.552;9.874;2023-07-24T10:43:23;3.78;;;2.92;;
13795;SDS011;40911;51.552;9.874;2023-07-24T10:45:48;4.45;;;3.05;;
13795;SDS011;40911;51.552;9.874;2023-07-24T10:48:11;5.45;;;3.38;;
13795;SDS011;40911;51.552;9.874;2023-07-24T10:50:36;5.28;;;3.28;;
13795;SDS011;40911;51.552;9.874;2023-07-24T10:53:02;5.95;;;3.45;;
13795;SDS011;40911;51.552;9.874;2023-07-24T10:55:24;5.53;;;3.25;;
13795;SDS011;40911;51.552;9.874;2023-07-24T10:57:45;5.25;;;3.17;;
13795;SDS011;40911;51.552;9.874;2023-07-24T11:00:08;5.50;;;3.40;;
13795;SDS011;40911;51.552;9.874;2023-07-24T11:02:30;3.95;;;3.15;;
13795;SDS011;40911;51.552;9.874;2023-07-24T11:04:52;4.65;;;3.47;;
13795;SDS011;40911;51.552;9.874;2023-07-24T11:07:13;5.63;;;3.38;;
13795;SDS011;40911;51.552;9.874;2023-07-24T11:09:37;5.88;;;3.55;;
13795;SDS011;40911;51.552;9.874;2023-07-24T11:12:00;5.95;;;3.33;;
13795;SDS011;40911;51.552;9.874;2023-07-24T11:14:30;5.37;;;3.90;;
13795;SDS011;40911;51.552;9.874;2023-07-24T11:16:53;4.85;;;3.55;;
13795;SDS011;40911;51.552;9.874;2023-07-24T11:19:21;4.35;;;3.22;;
13795;SDS011;40911;51.552;9.874;2023-07-24T11:21:43;4.88;;;3.28;;
13795;SDS011;40911;51.552;9.874;2023-07-24T11:24:06;4.82;;;3.45;;
13795;SDS011;40911;51.552;9.874;2023-07-24T11:26:30;4.95;;;3.45;;
13795;SDS011;40911;51.552;9.874;2023-07-24T11:28:52;4.65;;;3.17;;
13795;SDS011;40911;51.552;9.874;2023-07-24T11:31:14;6.85;;;3.72;;
13795;SDS011;40911;51.552;9.874;2023-07-24T11:33:39;5.57;;;3.53;;
13795;SDS011;40911;51.552;9.874;2023-07-24T11:36:02;5.72;;;3.35;;
13795;SDS011;40911;51.552;9.874;2023-07-24T11:38:23;5.70;;;3.33;;
13795;SDS011;40911;51.552;9.874;2023-07-24T11:40:45;5.82;;;3.22;;
13795;SDS011;40911;51.552;9.874;2023-07-24T11:43:15;5.43;;;3.22;;
13795;SDS011;40911;51.552;9.874;2023-07-24T11:45:41;6.32;;;3.58;;
13795;SDS011;40911;51.552;9.874;2023-07-24T11:48:03;7.15;;;3.35;;
13795;SDS011;40911;51.552;9.874;2023-07-24T11:50:41;6.00;;;3.80;;
13795;SDS011;40911;51.552;9.874;2023-07-24T11:53:03;7.82;;;3.70;;
13795;SDS011;40911;51.552;9.874;2023-07-24T11:55:30;8.20;;;3.58;;
13795;SDS011;40911;51.552;9.874;2023-07-24T11:57:56;5.90;;;3.47;;
13795;SDS011;40911;51.552;9.874;2023-07-24T12:00:20;7.00;;;3.97;;
13795;SDS011;40911;51.552;9.874;2023-07-24T12:02:42;5.30;;;3.50;;
13795;SDS011;40911;51.552;9.874;2023-07-24T12:05:04;5.13;;;3.60;;
13795;SDS011;40911;51.552;9.874;2023-07-24T12:07:30;8.43;;;3.92;;
13795;SDS011;40911;51.552;9.874;2023-07-24T12:09:53;5.65;;;3.85;;
13795;SDS011;40911;51.552;9.874;2023-07-24T12:12:15;9.80;;;3.90;;
13795;SDS011;40911;51.552;9.874;2023-07-24T12:14:38;4.55;;;3.40;;
13795;SDS011;40911;51.552;9.874;2023-07-24T12:17:01;5.57;;;3.50;;
13795;SDS011;40911;51.552;9.874;2023-07-24T12:19:24;6.03;;;3.90;;
13795;SDS011;40911;51.552;9.874;2023-07-24T12:21:46;4.78;;;3.35;;
13795;SDS011;40911;51.552;9.874;2023-07-24T12:24:07;5.40;;;3.65;;
13795;SDS011;40911;51.552;9.874;2023-07-24T12:26:35;6.53;;;3.22;;
13795;SDS011;40911;51.552;9.874;2023-07-24T12:28:57;6.15;;;3.22;;
13795;SDS011;40911;51.552;9.874;2023-07-24T12:31:20;3.75;;;2.90;;
13795;SDS011;40911;51.552;9.874;2023-07-24T12:33:43;3.53;;;2.70;;
13795;SDS011;40911;51.552;9.874;2023-07-24T12:36:05;4.35;;;3.10;;
13795;SDS011;40911;51.552;9.874;2023-07-24T12:38:27;3.65;;;3.05;;
13795;SDS011;40911;51.552;9.874;2023-07-24T12:40:49;4.68;;;3.30;;
13795;SDS011;40911;51.552;9.874;2023-07-24T12:43:11;4.85;;;2.97;;
13795;SDS011;40911;51.552;9.874;2023-07-24T12:45:33;5.95;;;3.05;;
13795;SDS011;40911;51.552;9.874;2023-07-24T12:47:54;4.13;;;3.03;;
13795;SDS011;40911;51.552;9.874;2023-07-24T12:50:17;7.13;;;3.25;;
13795;SDS011;40911;51.552;9.874;2023-07-24T12:52:39;3.50;;;2.95;;
13795;SDS011;40911;51.552;9.874;2023-07-24T12:55:01;5.13;;;3.05;;
13795;SDS011;40911;51.552;9.874;2023-07-24T12:57:23;4.13;;;3.28;;
13795;SDS011;40911;51.552;9.874;2023-07-24T12:59:46;4.07;;;3.08;;
13795;SDS011;40911;51.552;9.874;2023-07-24T13:02:07;4.28;;;3.33;;
13795;SDS011;40911;51.552;9.874;2023-07-24T13:04:29;5.05;;;3.55;;
13795;SDS011;40911;51.552;9.874;2023-07-24T13:06:52;6.60;;;3.67;;
13795;SDS011;40911;51.552;9.874;2023-07-24T13:09:14;5.90;;;3.20;;
13795;SDS011;40911;51.552;9.874;2023-07-24T13:11:36;3.53;;;2.85;;
13795;SDS011;40911;51.552;9.874;2023-07-24T13:13:58;3.78;;;2.90;;
13795;SDS011;40911;51.552;9.874;2023-07-24T13:16:20;4.43;;;2.83;;
13795;SDS011;40911;51.552;9.874;2023-07-24T13:18:42;4.78;;;2.90;;
13795;SDS011;40911;51.552;9.874;2023-07-24T13:21:03;3.20;;;2.65;;
13795;SDS011;40911;51.552;9.874;2023-07-24T13:23:27;4.05;;;2.95;;
13795;SDS011;40911;51.552;9.874;2023-07-24T13:25:49;6.10;;;3.03;;
13795;SDS011;40911;51.552;9.874;2023-07-24T13:28:12;3.92;;;3.17;;
13795;SDS011;40911;51.552;9.874;2023-07-24T13:30:34;4.85;;;3.03;;
13795;SDS011;40911;51.552;9.874;2023-07-24T13:32:56;7.72;;;3.00;;
13795;SDS011;40911;51.552;9.874;2023-07-24T13:35:18;4.57;;;3.33;;
13795;SDS011;40911;51.552;9.874;2023-07-24T13:37:40;5.15;;;3.40;;
13795;SDS011;40911;51.552;9.874;2023-07-24T13:40:04;5.47;;;2.83;;
13795;SDS011;40911;51.552;9.874;2023-07-24T13:42:26;4.90;;;3.65;;
13795;SDS011;40911;51.552;9.874;2023-07-24T13:44:48;4.85;;;3.10;;
13795;SDS011;40911;51.552;9.874;2023-07-24T13:47:10;7.95;;;3.70;;
13795;SDS011;40911;51.552;9.874;2023-07-24T13:49:32;5.25;;;3.90;;
13795;SDS011;40911;51.552;9.874;2023-07-24T13:51:54;5.05;;;3.63;;
13795;SDS011;40911;51.552;9.874;2023-07-24T13:54:16;5.70;;;3.80;;
13795;SDS011;40911;51.552;9.874;2023-07-24T13:56:39;4.97;;;3.42;;
13795;SDS011;40911;51.552;9.874;2023-07-24T13:59:00;7.78;;;3.78;;
13795;SDS011;40911;51.552;9.874;2023-07-24T14:01:23;5.93;;;3.90;;
13795;SDS011;40911;51.552;9.874;2023-07-24T14:03:45;5.60;;;3.78;;
13795;SDS011;40911;51.552;9.874;2023-07-24T14:06:09;5.13;;;3.42;;
13795;SDS011;40911;51.552;9.874;2023-07-24T14:08:33;4.80;;;3.63;;
13795;SDS011;40911;51.552;9.874;2023-07-24T14:10:55;4.82;;;3.58;;
13795;SDS011;40911;51.552;9.874;2023-07-24T14:13:18;5.78;;;3.60;;
13795;SDS011;40911;51.552;9.874;2023-07-24T14:15:40;5.63;;;3.85;;
13795;SDS011;40911;51.552;9.874;2023-07-24T14:18:01;5.82;;;3.40;;
13795;SDS011;40911;51.552;9.874;2023-07-24T14:20:23;7.05;;;3.60;;
13795;SDS011;40911;51.552;9.874;2023-07-24T14:22:47;4.80;;;3.65;;
13795;SDS011;40911;51.552;9.874;2023-07-24T14:25:09;7.97;;;3.80;;
13795;SDS011;40911;51.552;9.874;2023-07-24T14:27:31;7.63;;;4.10;;
13795;SDS011;40911;51.552;9.874;2023-07-24T14:29:55;5.72;;;3.63;;
13795;SDS011;40911;51.552;9.874;2023-07-24T14:32:24;5.03;;;3.40;;
13795;SDS011;40911;51.552;9.874;2023-07-24T14:34:47;7.63;;;4.18;;
13795;SDS011;40911;51.552;9.874;2023-07-24T14:37:11;4.75;;;3.30;;
13795;SDS011;40911;51.552;9.874;2023-07-24T14:39:33;6.53;;;4.07;;
13795;SDS011;40911;51.552;9.874;2023-07-24T14:41:55;6.15;;;3.90;;
13795;SDS011;40911;51.552;9.874;2023-07-24T14:44:16;8.73;;;3.60;;
13795;SDS011;40911;51.552;9.874;2023-07-24T14:46:40;7.07;;;1.60;;
13795;SDS011;40911;51.552;9.874;2023-07-24T14:49:01;4.07;;;1.02;;
13795;SDS011;40911;51.552;9.874;2023-07-24T14:51:23;6.75;;;1.42;;
13795;SDS011;40911;51.552;9.874;2023-07-24T14:53:46;2.47;;;1.02;;
13795;SDS011;40911;51.552;9.874;2023-07-24T14:56:07;3.38;;;1.30;;
13795;SDS011;40911;51.552;9.874;2023-07-24T14:58:29;2.17;;;1.10;;
13795;SDS011;40911;51.552;9.874;2023-07-24T15:00:51;1.52;;;0.98;;
13795;SDS011;40911;51.552;9.874;2023-07-24T15:03:14;3.40;;;1.02;;
13795;SDS011;40911;51.552;9.874;2023-07-24T15:05:36;4.50;;;1.20;;
13795;SDS011;40911;51.552;9.874;2023-07-24T15:07:58;3.42;;;1.33;;
13795;SDS011;40911;51.552;9.874;2023-07-24T15:12:42;2.22;;;1.50;;
13795;SDS011;40911;51.552;9.874;2023-07-24T15:17:26;4.15;;;1.30;;
13795;SDS011;40911;51.552;9.874;2023-07-24T15:19:49;1.38;;;1.27;;
13795;SDS011;40911;51.552;9.874;2023-07-24T15:22:11;1.98;;;1.48;;
13795;SDS011;40911;51.552;9.874;2023-07-24T15:26:54;3.00;;;1.38;;
13795;SDS011;40911;51.552;9.874;2023-07-24T15:31:38;4.00;;;1.55;;
13795;SDS011;40911;51.552;9.874;2023-07-24T15:34:01;8.05;;;1.38;;
13795;SDS011;40911;51.552;9.874;2023-07-24T15:36:24;3.38;;;1.80;;
13795;SDS011;40911;51.552;9.874;2023-07-24T15:38:46;3.58;;;1.70;;
13795;SDS011;40911;51.552;9.874;2023-07-24T15:43:29;3.10;;;1.80;;
13795;SDS011;40911;51.552;9.874;2023-07-24T15:45:51;4.70;;;1.98;;
13795;SDS011;40911;51.552;9.874;2023-07-24T15:48:12;3.80;;;1.90;;